Time;durP1;ratioP1;P1;durP2;ratioP2;P2;SDS_P1;SDS_P2;PMS_P1;PMS_P2;Temp;Humidity;BMP_temperature;BMP_pressure;BME280_temperature;BME280_humidity;BME280_pressure;Samples;Min_cycle;Max_cycle;Signal;HPM_P1;HPM_P2
2022/09/16 00:00:56;;;;;;;41.38;7.97;;;;;;;16.47;100.00;97306.06;5003612;28;20030;-57
2022/09/16 00:03:22;;;;;;;34.25;7.03;;;;;;;16.11;100.00;97307.91;5004028;28;20029;-58
2022/09/16 00:05:50;;;;;;;25.30;6.90;;;;;;;16.24;100.00;97319.16;5005226;28;20140;-57
2022/09/16 00:08:17;;;;;;;32.55;7.70;;;;;;;16.51;100.00;97310.16;5008838;28;20079;-60
2022/09/16 00:10:43;;;;;;;48.47;8.85;;;;;;;16.68;100.00;97304.44;5002012;28;20036;-59
2022/09/16 00:13:10;;;;;;;37.15;8.07;;;;;;;16.20;100.00;97312.47;5007724;28;20022;-58
2022/09/16 00:15:35;;;;;;;33.33;8.40;;;;;;;16.40;100.00;97310.13;5006384;28;20038;-58
2022/09/16 00:18:00;;;;;;;34.55;7.80;;;;;;;16.28;100.00;97302.19;5006274;28;20014;-59
2022/09/16 00:20:27;;;;;;;31.75;7.82;;;;;;;16.17;100.00;97296.91;5006180;28;21308;-60
2022/09/16 00:22:52;;;;;;;31.90;7.63;;;;;;;16.58;100.00;97290.31;5008172;28;20018;-59
2022/09/16 00:25:18;;;;;;;29.90;7.70;;;;;;;16.23;100.00;97299.09;5007058;28;20114;-59
2022/09/16 00:27:47;;;;;;;28.42;6.90;;;;;;;16.70;100.00;97299.88;5005782;28;20017;-58
2022/09/16 00:30:12;;;;;;;28.38;7.88;;;;;;;16.35;100.00;97294.69;5008765;28;20022;-59
2022/09/16 00:32:38;;;;;;;36.63;8.75;;;;;;;16.34;100.00;97296.47;5007818;28;20026;-58
2022/09/16 00:35:03;;;;;;;31.75;8.00;;;;;;;16.32;100.00;97290.50;5007783;28;20846;-59
2022/09/16 00:37:31;;;;;;;27.05;7.72;;;;;;;16.28;100.00;97282.94;5006149;28;21096;-59
2022/09/16 00:39:56;;;;;;;40.13;8.98;;;;;;;16.62;100.00;97286.47;5005778;28;20088;-59
2022/09/16 00:42:22;;;;;;;28.60;7.50;;;;;;;16.88;100.00;97291.56;5007366;28;20434;-59
2022/09/16 00:44:53;;;;;;;33.58;7.57;;;;;;;16.75;100.00;97287.19;5009191;28;20057;-59
2022/09/16 00:47:25;;;;;;;32.03;7.40;;;;;;;16.83;100.00;97283.16;5007221;28;20037;-59
2022/09/16 00:49:55;;;;;;;30.30;7.03;;;;;;;16.76;100.00;97299.41;5006677;28;20125;-58
2022/09/16 00:52:21;;;;;;;25.92;6.65;;;;;;;16.88;100.00;97291.56;5006198;28;20119;-60
2022/09/16 00:54:47;;;;;;;29.83;7.45;;;;;;;16.29;100.00;97300.41;5006913;28;20722;-59
2022/09/16 00:57:14;;;;;;;26.60;6.95;;;;;;;16.29;100.00;97296.00;5007309;28;20038;-59
2022/09/16 00:59:44;;;;;;;28.13;7.00;;;;;;;16.65;100.00;97296.78;5007689;28;20033;-60
2022/09/16 01:02:14;;;;;;;27.40;7.13;;;;;;;16.19;100.00;97295.00;5005417;28;20041;-59
2022/09/16 01:04:52;;;;;;;29.90;7.60;;;;;;;16.27;100.00;97297.06;5008241;28;20119;-59
2022/09/16 01:07:44;;;;;;;27.00;7.68;;;;;;;16.25;100.00;97289.28;5005305;28;20634;-59
2022/09/16 01:10:12;;;;;;;30.73;7.67;;;;;;;16.04;100.00;97293.50;5006460;28;20038;-58
2022/09/16 01:12:38;;;;;;;28.27;7.57;;;;;;;15.99;100.00;97299.97;5004895;28;20281;-57
2022/09/16 01:15:05;;;;;;;30.58;8.40;;;;;;;15.89;100.00;97293.69;5005062;28;20021;-58
2022/09/16 01:17:52;;;;;;;29.67;8.35;;;;;;;15.66;100.00;97299.75;5006094;28;20117;-56
2022/09/16 01:20:20;;;;;;;32.92;8.38;;;;;;;16.00;100.00;97291.09;5007017;28;20030;-59
2022/09/16 01:23:11;;;;;;;26.77;8.18;;;;;;;16.17;100.00;97291.63;5006128;28;20041;-58
2022/09/16 01:25:58;;;;;;;29.05;7.90;;;;;;;15.71;100.00;97300.28;5001327;28;20045;-57
2022/09/16 01:28:52;;;;;;;24.23;7.38;;;;;;;16.08;100.00;97298.44;4989507;28;20442;-59
2022/09/16 01:31:44;;;;;;;38.33;8.90;;;;;;;15.77;100.00;97300.72;5004440;28;20526;-57
2022/09/16 01:34:16;;;;;;;33.33;8.32;;;;;;;16.13;100.00;97303.34;5007228;28;20622;-57
2022/09/16 01:36:56;;;;;;;37.05;8.43;;;;;;;16.16;100.00;97303.13;5005986;28;20055;-58
2022/09/16 01:39:27;;;;;;;30.10;7.75;;;;;;;15.76;100.00;97306.91;5006332;28;20056;-60
2022/09/16 01:42:18;;;;;;;32.53;8.10;;;;;;;16.16;100.00;97305.75;5006056;28;20699;-60
2022/09/16 01:45:16;;;;;;;32.35;8.35;;;;;;;15.77;100.00;97305.13;5007017;28;20060;-57
2022/09/16 01:47:56;;;;;;;29.02;7.20;;;;;;;15.75;100.00;97312.28;5004555;28;20057;-60
2022/09/16 01:50:54;;;;;;;30.40;8.48;;;;;;;15.65;100.00;97313.88;5005390;28;20033;-57
2022/09/16 01:53:44;;;;;;;35.30;8.23;;;;;;;16.02;100.00;97290.16;4967524;28;20048;-57
2022/09/16 01:56:26;;;;;;;49.78;9.60;;;;;;;15.70;100.00;97303.88;5005605;28;20103;-55
2022/09/16 01:59:19;;;;;;;26.93;7.87;;;;;;;15.77;100.00;97289.38;4992965;28;20534;-57
2022/09/16 02:01:48;;;;;;;33.40;8.07;;;;;;;16.15;100.00;97298.81;5006036;28;20134;-58
2022/09/16 02:04:28;;;;;;;29.77;7.47;;;;;;;16.13;100.00;97290.19;5007544;28;20021;-57
2022/09/16 02:06:58;;;;;;;31.05;7.38;;;;;;;16.45;100.00;97292.19;5005512;28;20041;-58
2022/09/16 02:09:28;;;;;;;32.15;8.48;;;;;;;16.07;100.00;97290.66;5008365;28;20165;-56
2022/09/16 02:12:00;;;;;;;29.55;8.25;;;;;;;16.18;100.00;97288.06;5007555;28;20575;-56
2022/09/16 02:14:30;;;;;;;30.30;7.03;;;;;;;16.17;100.00;97296.91;5010659;28;20087;-58
2022/09/16 02:17:00;;;;;;;30.65;8.63;;;;;;;16.22;100.00;97300.03;5010454;28;20868;-55
2022/09/16 02:19:31;;;;;;;30.77;6.13;;;;;;;16.77;100.00;97302.88;5009390;28;20407;-56
2022/09/16 02:22:00;;;;;;;25.42;7.57;;;;;;;16.14;100.00;97305.03;5006762;28;20041;-57
2022/09/16 02:24:28;;;;;;;31.60;8.05;;;;;;;15.90;100.00;97297.16;5009200;28;20239;-56
2022/09/16 02:27:01;;;;;;;29.20;7.95;;;;;;;15.84;100.00;97305.50;5007990;28;20044;-56
2022/09/16 02:29:33;;;;;;;24.13;6.97;;;;;;;15.93;100.00;97310.91;5010024;28;20457;-59
2022/09/16 02:32:04;;;;;;;29.65;8.25;;;;;;;15.90;100.00;97305.91;5007970;28;20785;-57
2022/09/16 02:34:41;;;;;;;30.42;8.38;;;;;;;15.92;100.00;97305.78;5008239;28;20116;-57
2022/09/16 02:37:13;;;;;;;28.05;7.70;;;;;;;15.91;100.00;97307.56;5007899;28;20041;-59
2022/09/16 02:39:39;;;;;;;;;;;;;;;16.22;100.00;97310.56;5010451;28;20033;-56
2022/09/16 02:42:05;;;;;;;35.42;7.80;;;;;;;15.96;100.00;97307.25;5008417;28;20015;-55
2022/09/16 02:44:33;;;;;;;24.52;7.32;;;;;;;15.64;100.00;97309.56;5010036;28;20018;-56
2022/09/16 02:47:26;;;;;;;29.85;7.47;;;;;;;16.56;100.00;97302.75;5011688;28;20602;-57
2022/09/16 02:50:20;;;;;;;28.95;7.40;;;;;;;15.98;100.00;97295.66;5010049;28;20680;-56
2022/09/16 02:53:12;;;;;;;28.80;7.10;;;;;;;15.75;100.00;97302.63;5009280;28;20045;-57
2022/09/16 02:56:01;;;;;;;39.22;8.30;;;;;;;15.61;100.00;97306.19;5009032;28;20046;-57
2022/09/16 02:58:28;;;;;;;32.63;8.13;;;;;;;15.58;100.00;97305.59;5010006;28;20464;-57
2022/09/16 03:00:54;;;;;;;31.35;8.18;;;;;;;16.07;100.00;97311.72;5006940;28;20049;-58
2022/09/16 03:03:20;;;;;;;31.33;8.32;;;;;;;15.63;100.00;97307.91;5008878;28;20026;-56
2022/09/16 03:06:10;;;;;;;33.75;7.80;;;;;;;15.84;100.00;97311.59;5008036;28;20394;-58
2022/09/16 03:08:36;;;;;;;25.60;7.47;;;;;;;15.78;100.00;97307.63;5009313;28;20021;-56
2022/09/16 03:11:23;;;;;;;34.65;9.27;;;;;;;15.66;100.00;97315.53;5008237;28;20125;-57
2022/09/16 03:14:14;;;;;;;30.85;6.93;;;;;;;15.88;100.00;97307.81;5008946;28;20037;-56
2022/09/16 03:16:58;;;;;;;32.03;7.75;;;;;;;15.54;100.00;97304.97;5008822;28;20041;-56
2022/09/16 03:19:36;;;;;;;35.05;8.30;;;;;;;16.09;100.00;97304.53;5007639;28;20021;-56
2022/09/16 03:22:12;;;;;;;25.08;7.13;;;;;;;16.43;100.00;97291.47;5005955;28;20527;-56
2022/09/16 03:24:57;;;;;;;24.35;7.28;;;;;;;15.93;100.00;97300.41;5009948;28;20029;-56
2022/09/16 03:27:30;;;;;;;33.30;7.97;;;;;;;15.96;100.00;97297.56;5007485;28;20149;-55
2022/09/16 03:30:03;;;;;;;29.05;6.95;;;;;;;15.87;100.00;97290.34;5007329;28;20027;-59
2022/09/16 03:32:53;;;;;;;26.60;7.03;;;;;;;16.08;100.00;97292.31;5007232;28;20361;-56
2022/09/16 03:35:26;;;;;;;33.67;7.70;;;;;;;15.74;100.00;97300.09;5005971;28;20475;-56
2022/09/16 03:37:57;;;;;;;35.85;7.90;;;;;;;15.51;100.00;97289.44;5008939;28;20034;-56
2022/09/16 03:40:23;;;;;;;31.45;7.68;;;;;;;15.77;100.00;97305.13;5006496;28;20033;-56
2022/09/16 03:42:49;;;;;;;31.45;7.38;;;;;;;15.45;100.00;97305.63;5006552;28;20087;-58
2022/09/16 03:45:20;;;;;;;30.48;7.47;;;;;;;15.65;100.00;97300.72;5009020;28;20033;-56
2022/09/16 03:47:48;;;;;;;34.22;7.72;;;;;;;15.57;100.00;97306.56;5006387;28;20056;-57
2022/09/16 03:50:14;;;;;;;33.08;7.70;;;;;;;15.75;100.00;97304.38;5006397;28;20025;-57
2022/09/16 03:52:40;;;;;;;38.80;8.65;;;;;;;15.32;100.00;97295.16;5005824;28;20029;-56
2022/09/16 03:55:06;;;;;;;27.92;6.85;;;;;;;15.97;100.00;97296.63;5006961;28;20022;-57
2022/09/16 03:57:32;;;;;;;26.00;6.85;;;;;;;15.89;100.00;97283.19;5007132;28;20136;-56
2022/09/16 03:59:57;;;;;;;35.20;7.55;;;;;;;15.96;100.00;97281.78;5007468;28;20045;-56
2022/09/16 04:02:23;;;;;;;34.42;7.25;;;;;;;15.63;100.00;97281.59;5005770;28;20038;-56
2022/09/16 04:04:48;;;;;;;30.63;7.22;;;;;;;15.51;100.00;97278.94;5007066;28;20033;-57
2022/09/16 04:07:14;;;;;;;36.33;7.80;;;;;;;15.94;100.00;97286.31;5006586;28;20849;-56
2022/09/16 04:09:41;;;;;;;37.47;8.27;;;;;;;15.50;100.00;97286.91;5007560;28;20036;-56
2022/09/16 04:12:06;;;;;;;28.08;7.30;;;;;;;15.37;100.00;97284.34;5005350;28;20045;-57
2022/09/16 04:14:33;;;;;;;29.27;7.13;;;;;;;15.50;100.00;97287.75;5008395;28;20037;-57
2022/09/16 04:16:58;;;;;;;32.55;7.55;;;;;;;15.33;100.00;97281.09;5007992;28;20036;-56
2022/09/16 04:19:23;;;;;;;34.20;8.13;;;;;;;14.96;100.00;97282.84;5005838;28;20026;-57
2022/09/16 04:21:49;;;;;;;34.15;7.47;;;;;;;15.43;100.00;97294.38;5004123;28;20044;-56
2022/09/16 04:24:14;;;;;;;31.55;6.90;;;;;;;15.92;100.00;97292.66;5006972;28;20125;-57
2022/09/16 04:26:41;;;;;;;33.78;7.85;;;;;;;15.67;100.00;97288.31;5007926;28;20068;-56
2022/09/16 04:29:06;;;;;;;38.60;8.23;;;;;;;15.52;100.00;97279.75;5005798;28;20094;-58
2022/09/16 04:31:32;;;;;;;32.10;7.65;;;;;;;15.57;100.00;97278.47;5005759;28;20049;-57
2022/09/16 04:33:57;;;;;;;36.70;8.10;;;;;;;15.46;100.00;97290.69;5006588;28;20071;-60
2022/09/16 04:36:22;;;;;;;31.77;7.35;;;;;;;15.58;100.00;97288.00;5007367;28;20034;-56
2022/09/16 04:38:48;;;;;;;31.35;7.65;;;;;;;15.30;100.00;97280.47;5006785;28;20683;-57
2022/09/16 04:41:14;;;;;;;34.13;8.50;;;;;;;15.42;100.00;97279.59;5004213;28;20084;-57
2022/09/16 04:43:40;;;;;;;34.80;8.57;;;;;;;15.25;100.00;97282.56;5006585;28;20108;-57
2022/09/16 04:46:06;;;;;;;35.83;7.70;;;;;;;15.13;100.00;97279.88;5006396;28;20034;-56
2022/09/16 04:48:32;;;;;;;29.92;7.78;;;;;;;15.22;100.00;97287.09;5005505;28;20132;-57
2022/09/16 04:51:03;;;;;;;33.40;7.68;;;;;;;15.32;100.00;97279.41;5004687;28;21011;-58
2022/09/16 04:53:29;;;;;;;37.17;8.15;;;;;;;15.58;100.00;97280.13;5007059;28;20506;-58
2022/09/16 04:56:08;;;;;;;35.13;8.18;;;;;;;15.74;100.00;97273.81;5008206;28;20121;-58
2022/09/16 04:58:34;;;;;;;28.83;6.97;;;;;;;15.73;100.00;97259.78;5006742;28;20025;-58
2022/09/16 05:01:05;;;;;;;27.30;7.18;;;;;;;15.34;100.00;97271.41;5005095;28;20034;-59
2022/09/16 05:03:31;;;;;;;27.40;6.50;;;;;;;16.05;100.00;97272.38;5008321;28;20108;-57
2022/09/16 05:06:09;;;;;;;27.55;6.57;;;;;;;15.16;100.00;97245.53;4998448;28;20033;-59
2022/09/16 05:08:34;;;;;;;28.63;6.90;;;;;;;15.52;100.00;97251.69;5005118;28;20420;-56
2022/09/16 05:11:14;;;;;;;33.22;7.35;;;;;;;15.89;100.00;97259.50;5002669;28;20072;-56
2022/09/16 05:13:40;;;;;;;29.23;7.50;;;;;;;15.71;100.00;97260.84;5006916;28;20395;-57
2022/09/16 05:16:27;;;;;;;33.13;7.63;;;;;;;15.60;100.00;97257.22;5006497;28;20123;-56
2022/09/16 05:18:54;;;;;;;31.90;7.30;;;;;;;15.79;100.00;97251.47;5007255;28;20599;-58
2022/09/16 05:21:21;;;;;;;35.72;7.50;;;;;;;15.32;100.00;97273.31;5005520;28;20044;-58
2022/09/16 05:23:47;;;;;;;31.98;7.05;;;;;;;15.21;100.00;97277.53;5006455;28;20026;-57
2022/09/16 05:26:23;;;;;;;26.55;6.60;;;;;;;15.52;100.00;97280.59;5003553;28;20084;-58
2022/09/16 05:28:50;;;;;;;33.17;7.35;;;;;;;15.74;100.00;97281.69;5002820;28;20132;-58
2022/09/16 05:31:25;;;;;;;26.80;6.57;;;;;;;15.68;100.00;97289.97;5004217;28;20033;-59
2022/09/16 05:33:59;;;;;;;32.08;6.60;;;;;;;15.83;100.00;97278.38;5003568;28;20025;-57
2022/09/16 05:36:26;;;;;;;28.00;7.03;;;;;;;15.92;100.00;97288.22;5005835;28;20736;-57
2022/09/16 05:38:52;;;;;;;31.88;6.70;;;;;;;15.89;100.00;97282.34;5004958;28;20125;-57
2022/09/16 05:41:17;;;;;;;35.60;7.40;;;;;;;15.86;100.00;97283.44;5004518;28;20036;-58
2022/09/16 05:43:42;;;;;;;32.10;6.95;;;;;;;15.81;100.00;97282.91;5009336;28;20521;-58
2022/09/16 05:46:15;;;;;;;27.42;6.47;;;;;;;15.98;100.00;97279.88;5009892;28;20080;-57
2022/09/16 05:48:40;;;;;;;;;;;;;;;15.77;100.00;97268.31;5011673;28;20030;-58
2022/09/16 05:51:06;;;;;;;32.85;6.60;;;;;;;15.49;100.00;97279.97;5007852;28;19953;-57
2022/09/16 05:53:33;;;;;;;28.35;6.35;;;;;;;15.76;100.00;97282.41;5011352;28;20124;-57
2022/09/16 05:56:05;;;;;;;40.35;7.43;;;;;;;15.77;100.00;97287.56;5009323;28;20057;-58
2022/09/16 05:58:32;;;;;;;26.63;6.40;;;;;;;15.91;100.00;97280.44;5010127;28;20084;-57
2022/09/16 06:01:04;;;;;;;33.97;6.80;;;;;;;16.11;100.00;97292.09;5008545;28;20134;-58
2022/09/16 06:03:29;;;;;;;31.30;6.37;;;;;;;15.93;100.00;97287.25;5010487;28;20594;-58
2022/09/16 06:06:27;;;;;;;36.08;7.20;;;;;;;15.78;100.00;97286.59;5008401;28;20037;-58
2022/09/16 06:08:59;;;;;;;29.70;6.28;;;;;;;16.15;100.00;97288.28;5010688;28;20117;-57
2022/09/16 06:11:26;;;;;;;35.05;6.72;;;;;;;15.87;100.00;97282.44;4994131;28;20786;-57
2022/09/16 06:13:56;;;;;;;30.63;6.60;;;;;;;15.87;100.00;97279.81;5001245;28;20037;-58
2022/09/16 06:16:24;;;;;;;32.15;6.07;;;;;;;16.38;100.00;97284.75;5010202;28;20040;-58
2022/09/16 06:18:51;;;;;;;35.42;6.80;;;;;;;16.42;100.00;97287.16;5008552;28;20675;-58
2022/09/16 06:21:17;;;;;;;29.85;5.78;;;;;;;16.71;100.00;97290.22;5007851;28;20744;-57
2022/09/16 06:23:43;;;;;;;26.52;6.00;;;;;;;16.15;100.00;97288.28;5008583;28;20775;-58
2022/09/16 06:26:20;;;;;;;30.67;6.05;;;;;;;16.61;100.00;97279.53;5008408;28;20144;-59
2022/09/16 06:28:46;;;;;;;29.90;5.97;;;;;;;16.76;100.00;97281.00;5010724;28;20560;-57
2022/09/16 06:31:24;;;;;;;32.13;5.97;;;;;;;16.37;100.00;97283.06;5008181;28;20065;-56
2022/09/16 06:33:49;;;;;;;28.20;5.68;;;;;;;16.09;100.00;97278.25;5011272;28;20048;-56
2022/09/16 06:36:23;;;;;;;34.50;6.07;;;;;;;16.14;100.00;97282.19;5008601;28;20538;-58
2022/09/16 06:38:50;;;;;;;29.42;6.05;;;;;;;16.57;100.00;97276.28;5007530;28;20037;-58
2022/09/16 06:41:17;;;;;;;27.08;5.65;;;;;;;16.45;100.00;97263.22;5005562;28;20100;-57
2022/09/16 06:43:43;;;;;;;29.80;6.05;;;;;;;16.15;100.00;97281.22;5008612;28;20199;-56
2022/09/16 06:46:12;;;;;;;31.90;5.88;;;;;;;16.60;100.00;97256.81;5006214;28;20117;-59
2022/09/16 06:48:39;;;;;;;28.63;5.40;;;;;;;16.69;100.00;97266.63;5007472;28;20030;-58
2022/09/16 06:51:09;;;;;;;38.97;5.82;;;;;;;16.33;100.00;97260.59;5006367;28;20136;-58
2022/09/16 06:53:34;;;;;;;31.20;6.10;;;;;;;16.49;100.00;97259.44;5006581;28;20033;-57
2022/09/16 06:56:05;;;;;;;30.88;5.80;;;;;;;16.79;100.00;97260.63;5010055;28;20124;-55
2022/09/16 06:58:32;;;;;;;32.75;5.85;;;;;;;16.77;100.00;97258.94;5011080;28;20049;-56
2022/09/16 07:01:03;;;;;;;25.48;5.05;;;;;;;16.82;100.00;97255.09;5008655;28;20079;-56
2022/09/16 07:03:28;;;;;;;27.58;4.57;;;;;;;16.60;100.00;97262.06;5002602;28;20018;-58
2022/09/16 07:06:00;;;;;;;20.75;4.43;;;;;;;16.57;100.00;97259.66;5010590;28;20037;-58
2022/09/16 07:08:27;;;;;;;21.05;4.30;;;;;;;16.94;100.00;97257.66;5000472;28;20116;-58
2022/09/16 07:11:09;;;;;;;25.92;5.05;;;;;;;17.58;100.00;97263.19;5009531;28;20045;-58
2022/09/16 07:13:34;;;;;;;22.05;4.35;;;;;;;17.17;100.00;97269.97;5009623;28;20116;-59
2022/09/16 07:16:02;;;;;;;17.13;3.92;;;;;;;17.85;100.00;97265.41;5010716;28;20048;-60
2022/09/16 07:18:30;;;;;;;19.55;4.28;;;;;;;16.93;100.00;97271.78;5011825;28;20038;-58
2022/09/16 07:21:01;;;;;;;18.35;3.80;;;;;;;17.68;100.00;97266.72;5009834;28;20038;-58
2022/09/16 07:23:29;;;;;;;22.13;4.07;;;;;;;17.04;100.00;97265.69;5011489;28;20026;-58
2022/09/16 07:26:01;;;;;;;23.73;4.70;;;;;;;17.47;100.00;97256.13;5009871;28;20038;-58
2022/09/16 07:28:27;;;;;;;24.25;4.47;;;;;;;18.44;100.00;97253.44;5010457;28;20121;-58
2022/09/16 07:30:52;;;;;;;48.05;6.78;;;;;;;17.68;100.00;97258.81;5001948;28;20476;-58
2022/09/16 07:33:17;;;;;;;24.10;4.45;;;;;;;17.50;100.00;97251.47;5006872;28;20066;-59
2022/09/16 07:35:43;;;;;;;22.40;4.18;;;;;;;17.76;100.00;97245.84;5007949;28;20044;-56
2022/09/16 07:38:08;;;;;;;22.30;4.13;;;;;;;18.68;100.00;97250.50;5008825;28;20029;-59
2022/09/16 07:40:34;;;;;;;31.50;4.88;;;;;;;18.48;100.00;97252.22;5010386;28;20103;-57
2022/09/16 07:42:59;;;;;;;25.60;4.78;;;;;;;18.01;100.00;97251.75;5009175;28;20124;-58
2022/09/16 07:45:24;;;;;;;18.38;3.67;;;;;;;18.57;100.00;97248.78;5010089;28;20117;-60
2022/09/16 07:47:49;;;;;;;32.13;4.80;;;;;;;18.30;100.00;97244.88;5007855;28;20026;-59
2022/09/16 07:50:15;;;;;;;19.42;3.45;;;;;;;18.77;100.00;97248.88;5007662;28;20858;-59
2022/09/16 07:52:40;;;;;;;22.67;3.95;;;;;;;19.20;100.00;97242.50;5009805;28;20383;-59
2022/09/16 07:55:06;;;;;;;25.08;4.13;;;;;;;19.02;100.00;97240.53;5008357;28;20411;-56
2022/09/16 07:57:31;;;;;;;19.92;3.50;;;;;;;19.01;100.00;97238.84;5008451;28;20384;-58
2022/09/16 07:59:57;;;;;;;22.00;3.95;;;;;;;19.43;100.00;97233.38;5008375;28;20117;-59
2022/09/16 08:02:22;;;;;;;17.48;3.65;;;;;;;19.79;100.00;97246.09;5008532;28;20034;-60
2022/09/16 08:04:47;;;;;;;21.67;3.67;;;;;;;19.89;100.00;97243.44;5008790;28;20595;-59
2022/09/16 08:07:13;;;;;;;21.67;3.70;;;;;;;19.47;100.00;97241.03;5007746;28;20112;-59
2022/09/16 08:09:38;;;;;;;19.17;3.40;;;;;;;19.53;100.00;97248.41;5008596;28;20063;-59
2022/09/16 08:12:04;;;;;;;24.30;3.80;;;;;;;19.49;100.00;97241.72;5006400;28;20030;-59
2022/09/16 08:14:30;;;;;;;17.08;3.28;;;;;;;20.14;100.00;97234.09;5007417;28;20451;-58
2022/09/16 08:16:56;;;;;;;16.67;3.25;;;;;;;19.59;100.00;97231.97;5007794;28;20080;-59
2022/09/16 08:19:22;;;;;;;21.52;3.67;;;;;;;19.33;100.00;97242.25;5009811;28;20060;-57
2022/09/16 08:21:47;;;;;;;18.85;3.22;;;;;;;19.53;100.00;97237.84;5008865;28;20042;-57
2022/09/16 08:24:13;;;;;;;17.15;3.20;;;;;;;19.27;100.00;97248.94;5009183;28;20430;-59
2022/09/16 08:26:39;;;;;;;24.90;3.92;;;;;;;19.32;100.00;97241.44;5008723;28;20037;-58
2022/09/16 08:29:05;;;;;;;26.33;3.83;;;;;;;19.13;100.00;97236.09;5008056;28;20125;-58
2022/09/16 08:31:31;;;;;;;23.20;3.80;;;;;;;19.50;100.00;97240.75;5005626;28;20610;-57
2022/09/16 08:33:56;;;;;;;27.92;4.35;;;;;;;19.17;100.00;97240.13;5008655;28;20510;-59
2022/09/16 08:36:24;;;;;;;20.35;3.58;;;;;;;18.88;100.00;97232.97;5007930;28;20033;-58
2022/09/16 08:38:52;;;;;;;21.73;3.42;;;;;;;18.97;100.00;97242.72;4990062;28;20462;-58
2022/09/16 08:41:27;;;;;;;23.17;3.72;;;;;;;19.21;100.00;97246.84;5007286;28;20030;-57
2022/09/16 08:44:13;;;;;;;23.63;3.38;;;;;;;18.61;100.00;97242.25;5008470;28;20026;-59
2022/09/16 08:46:49;;;;;;;22.67;3.53;;;;;;;18.53;100.00;97250.00;5009161;28;20044;-59
2022/09/16 08:49:45;;;;;;;27.50;4.13;;;;;;;18.81;100.00;97248.50;5007504;28;20026;-57
2022/09/16 08:52:13;;;;;;;18.13;3.10;;;;;;;18.37;100.00;97254.94;5006042;28;20037;-56
2022/09/16 08:54:44;;;;;;;23.70;3.85;;;;;;;18.76;100.00;97270.97;5009640;28;20132;-57
2022/09/16 08:57:14;;;;;;;16.40;3.00;;;;;;;18.88;100.00;97256.75;5007707;28;20044;-57
2022/09/16 08:59:45;;;;;;;20.80;3.80;;;;;;;19.04;100.00;97250.94;5005855;28;20037;-56
2022/09/16 09:02:49;;;;;;;21.30;3.50;;;;;;;18.88;100.00;97248.81;5003191;28;20507;-58
2022/09/16 09:05:40;;;;;;;19.83;3.10;;;;;;;19.29;100.00;97252.25;5007785;28;20030;-56
2022/09/16 09:08:18;;;;;;;15.38;2.65;;;;;;;19.17;100.00;97250.69;5010280;28;20113;-58
2022/09/16 09:10:51;;;;;;;32.30;4.75;;;;;;;18.87;100.00;97245.31;5007477;28;20120;-58
2022/09/16 09:13:37;;;;;;;16.20;2.90;;;;;;;18.57;100.00;97251.41;5011414;28;20698;-59
2022/09/16 09:16:21;;;;;;;23.23;3.15;;;;;;;19.10;100.00;97252.19;5008706;28;20111;-59
2022/09/16 09:19:08;;;;;;;17.15;2.95;;;;;;;18.74;100.00;97251.78;4993977;28;20033;-59
2022/09/16 09:21:47;;;;;;;19.33;3.03;;;;;;;19.02;100.00;97248.44;5006091;28;20033;-59
2022/09/16 09:24:18;;;;;;;19.88;3.20;;;;;;;18.72;100.00;97249.25;5006403;28;20025;-59
2022/09/16 09:26:57;;;;;;;17.33;2.80;;;;;;;19.21;100.00;97260.88;5006910;28;20569;-59
2022/09/16 09:29:48;;;;;;;16.38;3.05;;;;;;;19.05;100.00;97258.75;5009563;28;20661;-59
2022/09/16 09:32:37;;;;;;;24.73;3.65;;;;;;;19.19;100.00;97252.25;5000337;28;20589;-59
2022/09/16 09:35:18;;;;;;;26.13;4.18;;;;;;;19.52;100.00;97258.16;5007147;28;20029;-59
2022/09/16 09:37:55;;;;;;;18.63;3.08;;;;;;;19.02;100.00;97247.59;5008349;28;20721;-60
2022/09/16 09:40:37;;;;;;;23.65;3.67;;;;;;;19.47;100.00;97262.19;5007933;28;20033;-58
2022/09/16 09:43:19;;;;;;;20.23;3.38;;;;;;;18.85;100.00;97254.34;5008505;28;20032;-60
2022/09/16 09:45:58;;;;;;;18.67;3.47;;;;;;;18.74;100.00;97257.88;5008952;28;20092;-60
2022/09/16 09:48:34;;;;;;;21.83;3.78;;;;;;;18.70;100.00;97267.06;5006072;28;21040;-60
2022/09/16 09:51:05;;;;;;;20.92;3.38;;;;;;;18.71;100.00;97258.16;5007314;28;20154;-60
2022/09/16 09:53:48;;;;;;;29.73;3.88;;;;;;;19.13;100.00;97254.59;5007919;28;20032;-60
2022/09/16 09:56:27;;;;;;;19.73;3.50;;;;;;;18.87;100.00;97247.97;5006395;28;20033;-59
2022/09/16 09:58:52;;;;;;;21.55;3.53;;;;;;;18.82;100.00;97244.03;5008897;28;20136;-60
2022/09/16 10:01:18;;;;;;;21.03;3.40;;;;;;;18.74;100.00;97246.50;5007337;28;20430;-60
2022/09/16 10:03:44;;;;;;;19.13;3.40;;;;;;;19.14;100.00;97237.78;5008379;28;20275;-60
2022/09/16 10:06:11;;;;;;;21.23;3.33;;;;;;;18.94;100.00;97248.28;5006638;28;20033;-60
2022/09/16 10:08:49;;;;;;;87.53;5.55;;;;;;;19.07;100.00;97240.09;4991750;28;20627;-60
2022/09/16 10:11:21;;;;;;;20.63;3.20;;;;;;;19.04;100.00;97230.66;5004667;28;20089;-60
2022/09/16 10:13:52;;;;;;;26.73;3.80;;;;;;;19.44;100.00;97237.66;5005968;28;20037;-59
2022/09/16 10:16:20;;;;;;;27.05;4.38;;;;;;;19.21;100.00;97238.91;5001170;28;20220;-59
2022/09/16 10:19:00;;;;;;;31.20;4.72;;;;;;;18.88;100.00;97239.06;5005380;28;20033;-59
2022/09/16 10:21:38;;;;;;;29.15;5.03;;;;;;;19.46;100.00;97237.53;5003598;28;20587;-59
2022/09/16 10:24:03;;;;;;;37.35;4.88;;;;;;;19.71;100.00;97238.81;5003843;28;20513;-60
2022/09/16 10:26:29;;;;;;;18.48;3.25;;;;;;;18.82;100.00;97225.56;5002959;28;20034;-61
2022/09/16 10:28:56;;;;;;;23.65;3.78;;;;;;;18.92;100.00;97223.78;5010260;28;20029;-61
2022/09/16 10:31:24;;;;;;;60.40;8.18;;;;;;;18.94;100.00;97227.13;5003858;28;20045;-62
2022/09/16 10:33:49;;;;;;;31.52;5.03;;;;;;;19.21;100.00;97225.69;5004909;28;20033;-59
2022/09/16 10:36:21;;;;;;;29.13;4.60;;;;;;;19.17;100.00;97226.91;5005575;28;20037;-59
2022/09/16 10:38:53;;;;;;;34.25;4.28;;;;;;;18.74;100.00;97222.72;5007274;28;20206;-57
2022/09/16 10:41:29;;;;;;;25.75;4.10;;;;;;;18.72;100.00;97222.84;5005585;28;20056;-58
2022/09/16 10:44:06;;;;;;;23.75;4.00;;;;;;;18.45;100.00;97220.78;5008768;28;20021;-59
2022/09/16 10:46:32;;;;;;;34.25;4.97;;;;;;;18.83;100.00;97230.72;5007266;28;20034;-59
2022/09/16 10:49:09;;;;;;;28.17;4.38;;;;;;;19.25;100.00;97235.84;5007001;28;20033;-57
2022/09/16 10:51:35;;;;;;;23.48;3.95;;;;;;;19.18;100.00;97215.38;5007115;28;20046;-57
2022/09/16 10:54:04;;;;;;;26.13;4.10;;;;;;;18.27;100.00;97223.19;5008297;28;20021;-58
2022/09/16 10:56:45;;;;;;;34.88;5.20;;;;;;;18.74;100.00;97220.91;5008821;28;20543;-58
2022/09/16 10:59:12;;;;;;;26.40;4.28;;;;;;;19.02;100.00;97222.03;5007729;28;20725;-58
2022/09/16 11:02:05;;;;;;;19.60;3.50;;;;;;;18.82;100.00;97218.47;5006616;28;20035;-60
2022/09/16 11:04:54;;;;;;;19.83;3.70;;;;;;;18.61;100.00;97220.31;5008857;28;20065;-57
2022/09/16 11:07:44;;;;;;;33.50;4.30;;;;;;;18.56;100.00;97223.31;5007842;28;20030;-61
2022/09/16 11:10:18;;;;;;;30.80;4.70;;;;;;;18.78;100.00;97216.19;5007657;28;20136;-59
2022/09/16 11:12:58;;;;;;;27.13;4.40;;;;;;;18.63;100.00;97208.63;5007098;28;20035;-61
2022/09/16 11:15:42;;;;;;;31.48;4.55;;;;;;;19.00;100.00;97201.97;5008234;28;20628;-60
2022/09/16 11:18:33;;;;;;;17.55;3.38;;;;;;;19.10;100.00;97207.28;5006829;28;20034;-59
2022/09/16 11:21:16;;;;;;;21.15;3.90;;;;;;;19.54;100.00;97202.50;5006281;28;20038;-58
2022/09/16 11:23:56;;;;;;;29.38;4.60;;;;;;;19.13;100.00;97204.38;5007522;28;20025;-60
2022/09/16 11:26:54;;;;;;;22.27;3.75;;;;;;;19.33;100.00;97205.25;5008115;28;20112;-60
2022/09/16 11:29:45;;;;;;;21.17;3.85;;;;;;;18.90;100.00;97199.31;5001313;28;20120;-59
2022/09/16 11:32:25;;;;;;;17.93;3.43;;;;;;;19.41;100.00;97202.75;5005592;28;20041;-60
2022/09/16 11:35:16;;;;;;;30.05;4.93;;;;;;;19.87;100.00;97203.03;5005658;28;20025;-59
2022/09/16 11:37:45;;;;;;;26.08;4.40;;;;;;;19.38;100.00;97198.56;5007147;28;20474;-57
2022/09/16 11:40:46;;;;;;;26.77;4.40;;;;;;;19.39;100.00;97204.69;5005655;28;20032;-59